createdAt,value
2019-03-24T00:02:07.366Z,19.13
2019-03-24T00:04:38.495Z,13.20
2019-03-24T00:07:09.754Z,15.93
2019-03-24T00:09:40.876Z,19.70
2019-03-24T00:12:12.606Z,18.10
2019-03-24T00:14:43.762Z,17.53
2019-03-24T00:17:15.024Z,17.77
2019-03-24T00:19:46.237Z,16.07
2019-03-24T00:22:17.390Z,25.53
2019-03-24T00:24:48.643Z,17.40
2019-03-24T00:27:24.711Z,13.40
2019-03-24T00:29:56.973Z,22.47
2019-03-24T00:32:31.345Z,20.27
2019-03-24T00:35:02.640Z,13.53
2019-03-24T00:37:38.438Z,17.17
2019-03-24T00:40:09.951Z,18.70
2019-03-24T00:42:41.209Z,17.87
2019-03-24T00:45:14.034Z,27.70
2019-03-24T00:47:45.365Z,17.33
2019-03-24T00:50:16.603Z,14.90
2019-03-24T00:52:57.317Z,16.47
2019-03-24T00:55:28.484Z,20.43
2019-03-24T00:57:59.781Z,21.07
2019-03-24T01:00:44.778Z,16.53
2019-03-24T01:03:16.170Z,17.37
2019-03-24T01:05:50.172Z,15.53
2019-03-24T01:08:21.363Z,20.77
2019-03-24T01:10:52.641Z,20.87
2019-03-24T01:13:23.874Z,20.80
2019-03-24T01:15:55.137Z,21.63
2019-03-24T01:18:26.240Z,15.30
2019-03-24T01:20:57.464Z,14.97
2019-03-24T01:23:28.709Z,19.93
2019-03-24T01:26:00.059Z,19.27
2019-03-24T01:28:37.791Z,16.57
2019-03-24T01:31:09.031Z,17.10
2019-03-24T01:33:40.253Z,18.10
2019-03-24T01:36:11.401Z,18.27
2019-03-24T01:38:42.513Z,22.77
2019-03-24T01:41:13.735Z,22.53
2019-03-24T01:43:44.948Z,21.50
2019-03-24T01:46:16.191Z,19.57
2019-03-24T01:48:54.474Z,16.93
2019-03-24T01:51:35.291Z,17.83
2019-03-24T01:54:06.499Z,28.47
2019-03-24T01:56:37.641Z,21.10
2019-03-24T01:59:20.988Z,22.30
2019-03-24T02:02:06.509Z,24.47
2019-03-24T02:04:37.630Z,20.57
2019-03-24T02:07:08.804Z,21.90
2019-03-24T02:09:40.057Z,23.60
2019-03-24T02:12:11.321Z,17.83
2019-03-24T02:14:43.064Z,21.80
2019-03-24T02:17:14.195Z,24.43
2019-03-24T02:19:45.328Z,31.93
2019-03-24T02:22:20.673Z,17.57
2019-03-24T02:24:51.971Z,24.63
2019-03-24T02:27:33.416Z,34.23
2019-03-24T02:30:06.963Z,20.80
2019-03-24T02:32:38.219Z,22.87
2019-03-24T02:35:15.625Z,24.73
2019-03-24T02:37:56.838Z,25.40
2019-03-24T02:40:28.110Z,32.17
2019-03-24T02:42:59.243Z,29.40
2019-03-24T02:45:30.475Z,27.70
2019-03-24T02:48:01.534Z,28.40
2019-03-24T02:50:32.804Z,27.47
2019-03-24T02:53:25.669Z,24.33
2019-03-24T02:56:14.630Z,25.03
2019-03-24T02:58:46.925Z,27.13
2019-03-24T03:01:18.103Z,31.33
2019-03-24T03:03:49.257Z,26.57
2019-03-24T03:06:20.466Z,23.20
2019-03-24T03:08:51.698Z,26.37
2019-03-24T03:11:22.982Z,27.43
2019-03-24T03:13:54.136Z,24.07
2019-03-24T03:16:37.848Z,21.77
2019-03-24T03:18:58.153Z,20.33
2019-03-24T03:21:34.356Z,19.97
2019-03-24T03:24:05.479Z,20.83
2019-03-24T03:26:36.631Z,24.83
2019-03-24T03:29:08.981Z,20.40
2019-03-24T03:31:45.420Z,23.80
2019-03-24T03:34:16.701Z,23.53
2019-03-24T03:37:01.644Z,21.70
2019-03-24T03:39:32.921Z,24.47
2019-03-24T03:42:04.175Z,17.60
2019-03-24T03:44:35.298Z,28.70
2019-03-24T03:47:06.567Z,25.10
2019-03-24T03:49:41.899Z,21.40
2019-03-24T03:52:13.082Z,28.30
2019-03-24T03:54:44.362Z,25.03
2019-03-24T03:57:15.560Z,24.80
2019-03-24T03:59:46.705Z,25.03
2019-03-24T04:02:20.005Z,28.17
2019-03-24T04:04:59.069Z,25.30
2019-03-24T04:07:30.355Z,24.57
2019-03-24T04:10:01.624Z,22.93
2019-03-24T04:12:39.349Z,20.60
2019-03-24T04:15:10.640Z,24.40
2019-03-24T04:17:41.921Z,23.53
2019-03-24T04:20:15.140Z,23.43
2019-03-24T04:22:46.363Z,19.87
2019-03-24T04:25:17.501Z,20.83
2019-03-24T04:27:53.371Z,19.27
2019-03-24T04:30:25.660Z,23.13
2019-03-24T04:32:56.961Z,19.10
2019-03-24T04:35:28.278Z,24.07
2019-03-24T04:38:00.631Z,20.40
2019-03-24T04:41:07.980Z,18.07
2019-03-24T04:43:54.032Z,23.13
2019-03-24T04:46:25.173Z,22.13
2019-03-24T04:48:56.304Z,21.47
2019-03-24T04:51:27.426Z,23.60
2019-03-24T04:53:58.569Z,21.90
2019-03-24T04:56:33.157Z,20.50
2019-03-24T04:59:04.488Z,21.97
2019-03-24T05:01:35.679Z,27.90
2019-03-24T05:04:06.804Z,20.87
2019-03-24T05:06:39.273Z,21.67
2019-03-24T05:09:26.472Z,24.70
2019-03-24T05:11:58.818Z,20.07
2019-03-24T05:14:48.217Z,15.93
2019-03-24T05:17:26.665Z,20.07
2019-03-24T05:19:52.246Z,16.27
2019-03-24T05:22:23.530Z,27.43
2019-03-24T05:25:03.729Z,18.87
2019-03-24T05:27:35.031Z,21.70
2019-03-24T05:30:16.651Z,22.53
2019-03-24T05:32:47.862Z,18.20
2019-03-24T05:35:23.005Z,17.00
2019-03-24T05:37:55.348Z,22.57
2019-03-24T05:40:38.915Z,23.17
2019-03-24T05:43:15.651Z,16.20
2019-03-24T05:46:13.655Z,25.20
2019-03-24T05:48:44.825Z,25.67
2019-03-24T05:51:16.022Z,17.67
2019-03-24T05:53:49.320Z,19.30
2019-03-24T05:56:21.575Z,18.73
2019-03-24T05:58:52.702Z,14.70
2019-03-24T06:01:23.862Z,18.20
2019-03-24T06:03:56.369Z,19.67
2019-03-24T06:06:34.565Z,20.13
2019-03-24T06:09:11.477Z,17.63
2019-03-24T06:11:49.531Z,21.20
2019-03-24T06:14:30.572Z,19.57
2019-03-24T06:17:02.939Z,24.77
2019-03-24T06:19:34.804Z,24.23
2019-03-24T06:22:08.357Z,25.70
2019-03-24T06:24:44.204Z,24.57
2019-03-24T06:27:32.620Z,17.10
2019-03-24T06:30:04.432Z,24.93
2019-03-24T06:32:41.718Z,20.57
2019-03-24T06:35:23.920Z,20.07
2019-03-24T06:37:56.280Z,21.03
2019-03-24T06:40:31.506Z,23.03
2019-03-24T06:43:04.411Z,23.93
2019-03-24T06:45:39.292Z,26.20
2019-03-24T06:48:19.483Z,22.23
2019-03-24T06:51:02.764Z,22.87
2019-03-24T06:53:34.091Z,22.93
2019-03-24T06:56:10.844Z,18.83
2019-03-24T06:58:49.014Z,22.00
2019-03-24T07:01:20.516Z,25.20
2019-03-24T07:03:53.006Z,21.30
2019-03-24T07:06:34.846Z,21.80
2019-03-24T07:09:24.270Z,20.23
2019-03-24T07:12:00.067Z,22.20
2019-03-24T07:14:30.764Z,19.87
2019-03-24T07:17:02.255Z,23.47
2019-03-24T07:19:33.952Z,26.07
2019-03-24T07:22:11.163Z,25.03
2019-03-24T07:24:48.514Z,18.63
2019-03-24T07:27:22.888Z,24.20
2019-03-24T07:29:54.221Z,19.70
2019-03-24T07:32:25.447Z,23.30
2019-03-24T07:35:02.817Z,15.73
2019-03-24T07:37:35.185Z,23.43
2019-03-24T07:40:28.003Z,24.03
2019-03-24T07:42:59.266Z,23.33
2019-03-24T07:45:34.504Z,19.27
2019-03-24T07:48:18.632Z,17.83
2019-03-24T07:50:43.863Z,25.90
2019-03-24T07:53:15.082Z,20.40
2019-03-24T07:55:49.273Z,17.77
2019-03-24T07:58:25.228Z,24.87
2019-03-24T08:00:57.525Z,27.30
2019-03-24T08:03:28.832Z,26.47
2019-03-24T08:06:09.233Z,23.57
2019-03-24T08:08:57.751Z,22.50
2019-03-24T08:11:35.744Z,28.13
2019-03-24T08:14:10.296Z,18.57
2019-03-24T08:16:41.655Z,20.40
2019-03-24T08:19:12.880Z,25.63
2019-03-24T08:21:45.075Z,29.50
2019-03-24T08:24:23.621Z,23.83
2019-03-24T08:26:56.937Z,22.73
2019-03-24T08:29:31.491Z,17.40
2019-03-24T08:32:03.801Z,21.83
2019-03-24T08:34:35.187Z,21.93
2019-03-24T08:37:07.552Z,20.33
2019-03-24T08:39:42.620Z,20.97
2019-03-24T08:42:14.920Z,26.00
2019-03-24T08:44:46.130Z,25.97
2019-03-24T08:47:19.525Z,25.17
2019-03-24T08:49:50.907Z,25.33
2019-03-24T08:52:22.328Z,25.93
2019-03-24T08:54:53.532Z,20.97
2019-03-24T08:57:25.006Z,23.03
2019-03-24T08:59:56.268Z,28.10
2019-03-24T09:02:28.480Z,26.67
2019-03-24T09:05:13.785Z,30.07
2019-03-24T09:07:45.166Z,22.47
2019-03-24T09:10:17.460Z,24.97
2019-03-24T09:12:50.786Z,25.90
2019-03-24T09:15:37.301Z,29.73
2019-03-24T09:18:10.711Z,25.97
2019-03-24T09:20:43.043Z,23.00
2019-03-24T09:23:26.525Z,22.87
2019-03-24T09:26:03.282Z,17.77
2019-03-24T09:28:36.837Z,21.87
2019-03-24T09:31:08.205Z,21.20
2019-03-24T09:33:40.452Z,18.83
2019-03-24T09:36:16.938Z,18.90
2019-03-24T09:38:48.158Z,19.30
2019-03-24T09:41:19.479Z,16.03
2019-03-24T09:43:51.754Z,20.73
2019-03-24T09:46:25.054Z,18.47
2019-03-24T09:49:03.008Z,16.60
2019-03-24T09:51:30.352Z,14.37
2019-03-24T09:54:13.039Z,16.70
2019-03-24T09:56:44.367Z,19.07
2019-03-24T09:59:22.961Z,17.40
2019-03-24T10:02:15.012Z,16.20
2019-03-24T10:04:52.084Z,19.83
2019-03-24T10:07:25.360Z,18.73
2019-03-24T10:09:57.771Z,16.77
2019-03-24T10:12:31.047Z,20.00
2019-03-24T10:15:02.391Z,15.63
2019-03-24T10:17:52.586Z,15.47
2019-03-24T10:20:30.546Z,15.17
2019-03-24T10:23:07.188Z,12.00
2019-03-24T10:25:43.277Z,19.47
2019-03-24T10:28:15.759Z,16.23
2019-03-24T10:30:46.997Z,15.73
2019-03-24T10:33:19.441Z,19.17
2019-03-24T10:35:52.706Z,16.50
2019-03-24T10:38:25.993Z,19.37
2019-03-24T10:40:57.214Z,19.67
2019-03-24T10:43:36.752Z,17.87
2019-03-24T10:46:08.258Z,20.43
2019-03-24T10:48:40.627Z,19.83
2019-03-24T10:51:12.679Z,16.57
2019-03-24T10:53:45.709Z,17.70
2019-03-24T10:56:18.832Z,18.97
2019-03-24T10:58:50.320Z,17.07
2019-03-24T11:01:22.516Z,20.80
2019-03-24T11:03:53.881Z,19.10
2019-03-24T11:06:25.187Z,22.37
2019-03-24T11:08:59.849Z,18.33
2019-03-24T11:11:33.038Z,14.97
2019-03-24T11:14:04.351Z,15.50
2019-03-24T11:16:40.474Z,19.43
2019-03-24T11:19:11.729Z,19.53
2019-03-24T11:21:44.707Z,16.80
2019-03-24T11:24:22.505Z,19.20
2019-03-24T11:26:55.680Z,18.33
2019-03-24T11:29:33.349Z,15.47
2019-03-24T11:32:05.684Z,21.07
2019-03-24T11:34:37.029Z,20.37
2019-03-24T11:37:08.289Z,23.10
2019-03-24T11:39:40.484Z,21.60
2019-03-24T11:42:16.179Z,22.70
2019-03-24T11:44:47.570Z,17.73
2019-03-24T11:47:26.772Z,17.57
2019-03-24T11:49:56.283Z,18.13
2019-03-24T11:52:28.555Z,15.43
2019-03-24T11:55:01.051Z,14.97
2019-03-24T11:57:32.293Z,15.67
2019-03-24T12:00:09.765Z,19.73
2019-03-24T12:02:48.615Z,14.47
2019-03-24T12:05:26.932Z,16.77
2019-03-24T12:08:04.411Z,10.87
2019-03-24T12:10:50.868Z,14.57
2019-03-24T12:13:23.110Z,14.07
2019-03-24T12:15:58.016Z,14.23
2019-03-24T12:18:29.559Z,12.53
2019-03-24T12:21:02.139Z,13.83
2019-03-24T12:23:33.628Z,6.13
2019-03-24T12:26:05.742Z,9.20
2019-03-24T12:28:37.084Z,10.53
2019-03-24T12:31:08.342Z,9.17
2019-03-24T12:33:41.009Z,10.37
2019-03-24T12:36:13.476Z,10.57
2019-03-24T12:38:45.803Z,10.87
2019-03-24T12:41:23.334Z,6.70
2019-03-24T12:43:54.598Z,9.73
2019-03-24T12:46:25.861Z,7.30
2019-03-24T12:49:06.148Z,9.73
2019-03-24T12:51:47.073Z,10.77
2019-03-24T12:54:22.486Z,11.10
2019-03-24T12:56:53.757Z,12.63
2019-03-24T12:59:25.157Z,11.47
2019-03-24T13:02:05.797Z,11.63
2019-03-24T13:04:41.358Z,8.27
2019-03-24T13:07:14.897Z,8.70
2019-03-24T13:09:46.127Z,9.07
2019-03-24T13:12:19.491Z,9.93
2019-03-24T13:14:52.579Z,6.77
2019-03-24T13:17:24.041Z,8.97
2019-03-24T13:19:57.390Z,9.00
2019-03-24T13:22:33.630Z,8.07
2019-03-24T13:25:05.437Z,15.00
2019-03-24T13:27:40.257Z,10.47
2019-03-24T13:30:11.650Z,9.67
2019-03-24T13:32:45.043Z,9.30
2019-03-24T13:35:19.207Z,7.87
2019-03-24T13:37:51.025Z,11.03
2019-03-24T13:40:25.132Z,12.70
2019-03-24T13:43:02.011Z,8.57
2019-03-24T13:45:33.372Z,8.00
2019-03-24T13:48:04.695Z,7.93
2019-03-24T13:50:43.289Z,11.00
2019-03-24T13:53:14.499Z,10.90
2019-03-24T13:55:47.142Z,9.60
2019-03-24T13:58:19.568Z,8.90
2019-03-24T14:00:52.748Z,9.30
2019-03-24T14:03:24.186Z,9.07
2019-03-24T14:06:04.219Z,6.97
2019-03-24T14:08:35.496Z,8.20
2019-03-24T14:11:17.862Z,9.13
2019-03-24T14:13:56.058Z,9.77
2019-03-24T14:16:36.535Z,8.30
2019-03-24T14:19:07.929Z,7.33
2019-03-24T14:21:49.112Z,10.23
2019-03-24T14:24:24.331Z,7.40
2019-03-24T14:26:56.622Z,11.20
2019-03-24T14:29:28.980Z,12.97
2019-03-24T14:32:00.447Z,15.73
2019-03-24T14:34:40.104Z,13.13
2019-03-24T14:37:11.853Z,13.70
2019-03-24T14:39:51.548Z,11.20
2019-03-24T14:42:23.992Z,10.30
2019-03-24T14:44:56.806Z,10.73
2019-03-24T14:47:39.746Z,12.03
2019-03-24T14:50:13.368Z,13.07
2019-03-24T14:52:46.323Z,10.77
2019-03-24T14:55:18.560Z,9.83
2019-03-24T14:57:50.305Z,7.33
2019-03-24T15:00:34.592Z,8.00
2019-03-24T15:03:16.520Z,13.33
2019-03-24T15:06:03.196Z,10.53
2019-03-24T15:08:36.060Z,8.00
2019-03-24T15:11:07.625Z,8.80
2019-03-24T15:13:41.157Z,9.40
2019-03-24T15:16:21.511Z,6.00
2019-03-24T15:18:58.325Z,10.60
2019-03-24T15:21:35.751Z,7.03
2019-03-24T15:24:11.519Z,6.77
2019-03-24T15:26:44.938Z,7.63
2019-03-24T15:29:16.277Z,7.47
2019-03-24T15:31:48.719Z,7.73
2019-03-24T15:34:22.434Z,9.23
2019-03-24T15:37:00.722Z,7.63
2019-03-24T15:39:37.933Z,7.27
2019-03-24T15:42:10.998Z,7.67
2019-03-24T15:44:42.275Z,11.00
2019-03-24T15:47:14.455Z,11.40
2019-03-24T15:49:45.721Z,6.87
2019-03-24T15:52:21.938Z,9.23
2019-03-24T15:54:59.014Z,11.93
2019-03-24T15:57:47.647Z,6.17
2019-03-24T16:00:30.829Z,8.83
2019-03-24T16:03:04.319Z,8.63
2019-03-24T16:05:35.636Z,11.47
2019-03-24T16:08:11.331Z,10.73
2019-03-24T16:10:42.643Z,10.63
2019-03-24T16:13:23.032Z,9.60
2019-03-24T16:15:55.611Z,9.70
2019-03-24T16:18:27.181Z,10.97
2019-03-24T16:20:58.827Z,10.00
2019-03-24T16:23:38.186Z,13.43
2019-03-24T16:26:16.526Z,13.10
2019-03-24T16:28:48.103Z,12.20
2019-03-24T16:31:24.518Z,11.93
2019-03-24T16:33:55.926Z,9.33
2019-03-24T16:36:27.276Z,14.63
2019-03-24T16:39:03.501Z,11.97
2019-03-24T16:41:31.674Z,10.20
2019-03-24T16:44:04.536Z,10.03
2019-03-24T16:46:45.352Z,14.97
2019-03-24T16:49:16.552Z,12.87
2019-03-24T16:51:51.509Z,12.33
2019-03-24T16:54:33.563Z,18.37
2019-03-24T16:57:06.640Z,15.20
2019-03-24T16:59:38.054Z,10.90
2019-03-24T17:02:09.384Z,16.53
2019-03-24T17:04:48.623Z,14.30
2019-03-24T17:07:20.050Z,13.00
2019-03-24T17:09:51.367Z,10.93
2019-03-24T17:12:26.559Z,11.57
2019-03-24T17:14:57.831Z,14.33
2019-03-24T17:17:29.060Z,11.50
2019-03-24T17:20:00.509Z,13.77
2019-03-24T17:22:35.188Z,9.93
2019-03-24T17:25:12.794Z,12.50
2019-03-24T17:27:47.642Z,11.80
2019-03-24T17:30:21.796Z,9.17
2019-03-24T17:32:59.466Z,12.00
2019-03-24T17:35:35.659Z,12.20
2019-03-24T17:38:10.493Z,13.27
2019-03-24T17:40:44.967Z,9.33
2019-03-24T17:43:19.912Z,10.63
2019-03-24T17:45:56.795Z,6.13
2019-03-24T17:48:31.818Z,10.20
2019-03-24T17:51:04.564Z,13.70
2019-03-24T17:53:43.241Z,9.33
2019-03-24T17:56:18.014Z,12.97
2019-03-24T17:58:58.085Z,9.77
2019-03-24T18:01:29.425Z,16.10
2019-03-24T18:04:08.452Z,11.50
2019-03-24T18:06:50.965Z,12.93
2019-03-24T18:09:22.303Z,10.30
2019-03-24T18:11:53.726Z,10.10
2019-03-24T18:14:30.951Z,9.63
2019-03-24T18:17:03.352Z,9.57
2019-03-24T18:19:41.753Z,12.20
2019-03-24T18:22:17.274Z,13.90
2019-03-24T18:24:50.626Z,11.63
2019-03-24T18:27:21.917Z,10.47
2019-03-24T18:29:53.254Z,13.10
2019-03-24T18:32:25.531Z,8.80
2019-03-24T18:35:00.452Z,7.13
2019-03-24T18:37:31.930Z,8.93
2019-03-24T18:40:04.637Z,7.70
2019-03-24T18:42:35.897Z,14.47
2019-03-24T18:45:08.583Z,9.10
2019-03-24T18:47:39.832Z,9.40
2019-03-24T18:50:12.474Z,6.90
2019-03-24T18:52:46.708Z,8.87
2019-03-24T18:55:23.942Z,9.37
2019-03-24T18:57:56.907Z,8.80
2019-03-24T19:00:28.078Z,15.77
2019-03-24T19:03:05.497Z,11.90
2019-03-24T19:05:42.201Z,10.97
2019-03-24T19:08:13.605Z,9.77
2019-03-24T19:10:48.181Z,10.40
2019-03-24T19:13:20.027Z,9.27
2019-03-24T19:15:55.574Z,9.10
2019-03-24T19:18:27.235Z,10.43
2019-03-24T19:20:58.993Z,10.20
2019-03-24T19:23:32.858Z,12.63
2019-03-24T19:26:07.801Z,12.43
2019-03-24T19:28:39.121Z,9.50
2019-03-24T19:31:11.344Z,8.33
2019-03-24T19:33:45.715Z,8.70
2019-03-24T19:36:17.174Z,10.10
2019-03-24T19:38:50.520Z,11.63
2019-03-24T19:41:24.004Z,10.97
2019-03-24T19:43:55.793Z,9.63
2019-03-24T19:46:27.150Z,10.90
2019-03-24T19:48:58.969Z,7.70
2019-03-24T19:51:31.828Z,11.13
2019-03-24T19:54:06.465Z,10.83
2019-03-24T19:56:37.906Z,7.00
2019-03-24T19:59:09.442Z,11.13
2019-03-24T20:01:40.940Z,9.90
2019-03-24T20:04:12.425Z,10.10
2019-03-24T20:06:46.962Z,13.57
2019-03-24T20:09:20.244Z,8.23
2019-03-24T20:11:53.756Z,13.83
2019-03-24T20:14:25.443Z,12.90
2019-03-24T20:16:57.364Z,8.63
2019-03-24T20:19:51.737Z,12.07
2019-03-24T20:22:23.468Z,10.27
2019-03-24T20:25:03.095Z,12.80
2019-03-24T20:27:38.863Z,13.43
2019-03-24T20:30:14.406Z,12.73
2019-03-24T20:32:50.092Z,10.33
2019-03-24T20:35:32.888Z,12.47
2019-03-24T20:38:05.454Z,14.17
2019-03-24T20:40:37.551Z,11.37
2019-03-24T20:43:16.813Z,13.13
2019-03-24T20:45:52.475Z,9.60
2019-03-24T20:48:25.571Z,13.43
2019-03-24T20:50:59.008Z,12.43
2019-03-24T20:53:31.299Z,12.77
2019-03-24T20:56:04.848Z,15.90
2019-03-24T20:58:36.541Z,9.93
2019-03-24T21:01:08.402Z,11.93
2019-03-24T21:03:41.410Z,11.60
2019-03-24T21:06:14.341Z,9.83
2019-03-24T21:08:47.028Z,12.43
2019-03-24T21:11:20.473Z,14.20
2019-03-24T21:13:53.602Z,15.33
2019-03-24T21:16:26.438Z,10.17
2019-03-24T21:19:05.094Z,11.40
2019-03-24T21:21:37.430Z,11.30
2019-03-24T21:24:09.529Z,14.53
2019-03-24T21:26:46.719Z,13.87
2019-03-24T21:29:20.851Z,12.70
2019-03-24T21:32:04.398Z,12.63
2019-03-24T21:34:39.299Z,12.80
2019-03-24T21:37:20.595Z,11.50
2019-03-24T21:39:57.417Z,13.80
2019-03-24T21:42:45.506Z,13.37
2019-03-24T21:45:17.425Z,12.10
2019-03-24T21:48:01.363Z,15.77
2019-03-24T21:50:37.860Z,12.47
2019-03-24T21:53:10.309Z,14.80
2019-03-24T21:55:42.616Z,11.47
2019-03-24T21:58:18.410Z,17.03
2019-03-24T22:00:50.630Z,15.53
2019-03-24T22:03:24.514Z,12.17
2019-03-24T22:05:57.059Z,13.87
2019-03-24T22:08:30.757Z,15.37
2019-03-24T22:11:05.060Z,15.30
2019-03-24T22:13:37.284Z,16.13
2019-03-24T22:16:11.980Z,18.50
2019-03-24T22:18:46.646Z,14.53
2019-03-24T22:21:17.997Z,17.10
2019-03-24T22:23:52.609Z,16.07
2019-03-24T22:26:25.961Z,22.00
2019-03-24T22:28:59.210Z,13.70
2019-03-24T22:31:32.647Z,16.77
2019-03-24T22:34:04.779Z,12.13
2019-03-24T22:36:37.312Z,12.00
2019-03-24T22:39:09.107Z,16.60
2019-03-24T22:41:43.848Z,14.13
2019-03-24T22:44:21.408Z,17.23
2019-03-24T22:46:52.567Z,12.23
2019-03-24T22:49:28.205Z,15.07
2019-03-24T22:52:07.182Z,12.50
2019-03-24T22:54:38.674Z,14.97
2019-03-24T22:57:10.155Z,12.60
2019-03-24T22:59:41.424Z,13.57
2019-03-24T23:02:12.887Z,11.93
2019-03-24T23:04:45.394Z,9.23
2019-03-24T23:07:27.589Z,15.53
2019-03-24T23:10:00.314Z,10.70
2019-03-24T23:12:33.267Z,11.10
2019-03-24T23:15:05.073Z,14.00
2019-03-24T23:17:36.879Z,14.37
2019-03-24T23:20:13.486Z,11.60
2019-03-24T23:22:49.454Z,14.27
2019-03-24T23:25:22.688Z,12.73
2019-03-24T23:27:55.898Z,12.60
2019-03-24T23:30:31.800Z,9.20
2019-03-24T23:33:03.165Z,12.10
2019-03-24T23:35:34.420Z,17.83
2019-03-24T23:38:19.740Z,11.73
2019-03-24T23:40:52.169Z,15.03
2019-03-24T23:43:26.503Z,15.53
2019-03-24T23:46:01.127Z,13.70
2019-03-24T23:48:32.411Z,12.17
2019-03-24T23:51:15.318Z,12.87
2019-03-24T23:53:46.581Z,15.07
2019-03-24T23:56:18.773Z,11.97
